createdAt,value
2018-03-16T00:01:29.923Z,77.30
2018-03-16T00:03:58.423Z,77.10
2018-03-16T00:06:25.976Z,76.90
2018-03-16T00:08:53.936Z,77.00
2018-03-16T00:11:21.474Z,76.80
2018-03-16T00:13:49.768Z,76.90
2018-03-16T00:16:17.347Z,76.90
2018-03-16T00:18:44.883Z,76.90
2018-03-16T00:21:12.909Z,77.00
2018-03-16T00:23:40.443Z,77.00
2018-03-16T00:26:09.231Z,76.90
2018-03-16T00:28:36.785Z,76.50
2018-03-16T00:31:04.289Z,76.60
2018-03-16T00:33:31.834Z,77.00
2018-03-16T00:35:59.502Z,77.00
2018-03-16T00:38:27.635Z,77.00
2018-03-16T00:40:55.250Z,76.70
2018-03-16T00:43:22.795Z,76.70
2018-03-16T00:45:50.343Z,76.70
2018-03-16T00:48:17.954Z,76.80
2018-03-16T00:50:45.489Z,77.10
2018-03-16T00:53:13.097Z,77.10
2018-03-16T00:55:40.732Z,77.50
2018-03-16T00:58:08.480Z,77.30
2018-03-16T01:00:36.033Z,77.10
2018-03-16T01:03:03.867Z,76.70
2018-03-16T01:05:31.395Z,76.70
2018-03-16T01:07:59.694Z,76.70
2018-03-16T01:10:27.237Z,76.70
2018-03-16T01:12:54.821Z,76.80
2018-03-16T01:15:22.418Z,76.80
2018-03-16T01:17:50.005Z,76.60
2018-03-16T01:20:17.639Z,76.50
2018-03-16T01:22:45.362Z,76.60
2018-03-16T01:25:13.500Z,76.10
2018-03-16T01:27:41.845Z,76.00
2018-03-16T01:30:09.831Z,76.00
2018-03-16T01:32:37.730Z,76.30
2018-03-16T01:35:05.264Z,76.10
2018-03-16T01:37:32.780Z,76.00
2018-03-16T01:40:00.951Z,75.90
2018-03-16T01:42:28.508Z,75.80
2018-03-16T01:44:56.094Z,75.20
2018-03-16T01:47:24.421Z,74.80
2018-03-16T01:49:52.767Z,74.50
2018-03-16T01:52:20.330Z,74.30
2018-03-16T01:54:47.889Z,74.30
2018-03-16T01:57:15.387Z,73.60
2018-03-16T01:59:42.978Z,73.70
2018-03-16T02:02:10.551Z,73.70
2018-03-16T02:04:38.782Z,74.00
2018-03-16T02:07:06.303Z,73.80
2018-03-16T02:09:34.153Z,73.40
2018-03-16T02:12:01.708Z,73.30
2018-03-16T02:14:30.546Z,73.30
2018-03-16T02:16:58.171Z,72.90
2018-03-16T02:19:25.704Z,72.80
2018-03-16T02:21:53.381Z,72.60
2018-03-16T02:24:20.899Z,72.80
2018-03-16T02:26:48.427Z,72.50
2018-03-16T02:29:15.960Z,72.20
2018-03-16T02:31:43.643Z,72.20
2018-03-16T02:34:11.279Z,72.10
2018-03-16T02:36:39.288Z,72.00
2018-03-16T02:39:07.259Z,71.80
2018-03-16T02:41:35.957Z,72.00
2018-03-16T02:44:03.465Z,71.60
2018-03-16T02:46:31.697Z,71.60
2018-03-16T02:48:59.238Z,71.60
2018-03-16T02:51:28.256Z,71.30
2018-03-16T02:53:55.779Z,71.30
2018-03-16T02:56:23.368Z,71.30
2018-03-16T02:58:50.982Z,71.40
2018-03-16T03:01:19.778Z,71.20
2018-03-16T03:03:47.859Z,71.30
2018-03-16T03:06:15.694Z,71.60
2018-03-16T03:08:43.235Z,71.80
2018-03-16T03:11:10.854Z,71.90
2018-03-16T03:13:39.256Z,72.10
2018-03-16T03:16:06.928Z,71.70
2018-03-16T03:18:35.171Z,71.70
2018-03-16T03:21:03.316Z,71.60
2018-03-16T03:23:30.829Z,71.40
2018-03-16T03:25:58.347Z,71.30
2018-03-16T03:28:26.917Z,71.50
2018-03-16T03:30:54.490Z,71.60
2018-03-16T03:33:23.573Z,71.60
2018-03-16T03:35:51.125Z,71.40
2018-03-16T03:38:18.629Z,71.60
2018-03-16T03:40:47.170Z,71.20
2018-03-16T03:43:14.725Z,71.10
2018-03-16T03:45:42.489Z,71.30
2018-03-16T03:48:10.065Z,71.40
2018-03-16T03:50:37.778Z,71.10
2018-03-16T03:53:05.904Z,71.00
2018-03-16T03:55:33.464Z,70.90
2018-03-16T03:58:01.176Z,70.80
2018-03-16T04:00:28.897Z,70.90
2018-03-16T04:02:56.422Z,71.20
2018-03-16T04:05:24.147Z,71.40
2018-03-16T04:07:51.686Z,72.00
2018-03-16T04:10:19.501Z,71.40
2018-03-16T04:12:47.050Z,71.30
2018-03-16T04:15:15.555Z,71.40
2018-03-16T04:17:43.062Z,71.60
2018-03-16T04:20:10.598Z,71.30
2018-03-16T04:22:38.892Z,71.50
2018-03-16T04:25:06.409Z,71.50
2018-03-16T04:27:33.939Z,71.50
2018-03-16T04:30:03.187Z,71.50
2018-03-16T04:32:30.798Z,71.60
2018-03-16T04:34:58.394Z,71.70
2018-03-16T04:37:26.012Z,71.50
2018-03-16T04:39:54.021Z,71.40
2018-03-16T04:42:22.327Z,71.60
2018-03-16T04:44:50.282Z,71.10
2018-03-16T04:47:18.438Z,71.40
2018-03-16T04:49:46.470Z,71.60
2018-03-16T04:52:14.787Z,71.80
2018-03-16T04:54:42.971Z,71.90
2018-03-16T04:57:10.496Z,71.90
2018-03-16T04:59:38.185Z,72.10
2018-03-16T05:02:05.718Z,71.80
2018-03-16T05:04:33.419Z,71.80
2018-03-16T05:07:01.386Z,71.60
2018-03-16T05:09:28.911Z,71.80
2018-03-16T05:11:56.426Z,71.90
2018-03-16T05:14:24.021Z,71.90
2018-03-16T05:16:52.314Z,71.70
2018-03-16T05:19:20.644Z,71.70
2018-03-16T05:21:48.175Z,71.80
2018-03-16T05:24:15.695Z,71.80
2018-03-16T05:26:44.519Z,71.90
2018-03-16T05:29:12.079Z,71.80
2018-03-16T05:31:39.738Z,71.90
2018-03-16T05:34:07.400Z,71.70
2018-03-16T05:36:35.504Z,71.60
2018-03-16T05:39:03.060Z,72.00
2018-03-16T05:41:30.610Z,71.60
2018-03-16T05:43:58.183Z,71.90
2018-03-16T05:46:25.849Z,71.90
2018-03-16T05:48:53.406Z,71.80
2018-03-16T05:51:21.166Z,71.50
2018-03-16T05:53:48.914Z,71.50
2018-03-16T05:56:16.561Z,71.50
2018-03-16T05:58:44.120Z,71.60
2018-03-16T06:01:12.440Z,71.60
2018-03-16T06:03:39.962Z,71.50
2018-03-16T06:06:07.622Z,71.20
2018-03-16T06:08:35.150Z,71.00
2018-03-16T06:11:03.468Z,71.00
2018-03-16T06:13:31.792Z,71.00
2018-03-16T06:16:00.121Z,70.70
2018-03-16T06:18:27.650Z,70.80
2018-03-16T06:20:56.160Z,70.40
2018-03-16T06:23:25.201Z,70.10
2018-03-16T06:25:53.880Z,70.20
2018-03-16T06:28:21.462Z,70.30
2018-03-16T06:30:49.912Z,70.10
2018-03-16T06:33:17.451Z,70.10
2018-03-16T06:35:44.981Z,69.40
2018-03-16T06:38:12.542Z,68.90
2018-03-16T06:40:40.068Z,69.00
2018-03-16T06:43:08.395Z,68.80
2018-03-16T06:45:35.965Z,69.00
2018-03-16T06:48:03.586Z,69.30
2018-03-16T06:50:31.157Z,68.80
2018-03-16T06:52:59.243Z,68.50
2018-03-16T06:55:26.860Z,68.30
2018-03-16T06:57:54.779Z,68.20
2018-03-16T07:00:22.325Z,68.30
2018-03-16T07:02:50.655Z,68.90
2018-03-16T07:05:18.373Z,67.70
2018-03-16T07:07:45.900Z,67.80
2018-03-16T07:10:14.267Z,67.70
2018-03-16T07:12:42.010Z,67.70
2018-03-16T07:15:21.432Z,68.20
2018-03-16T07:17:49.020Z,69.50
2018-03-16T07:20:16.590Z,70.30
2018-03-16T07:22:44.083Z,70.80
2018-03-16T07:25:11.650Z,68.70
2018-03-16T07:27:39.211Z,68.10
2018-03-16T07:30:06.758Z,67.80
2018-03-16T07:32:34.574Z,67.30
2018-03-16T07:35:02.156Z,66.80
2018-03-16T07:37:29.930Z,67.00
2018-03-16T07:39:58.295Z,66.90
2018-03-16T07:42:25.915Z,66.90
2018-03-16T07:44:53.568Z,66.40
2018-03-16T07:47:21.331Z,66.30
2018-03-16T07:49:48.858Z,65.80
2018-03-16T07:52:16.415Z,66.50
2018-03-16T07:54:43.911Z,66.40
2018-03-16T07:57:11.456Z,66.90
2018-03-16T07:59:39.596Z,66.70
2018-03-16T08:02:07.159Z,66.00
2018-03-16T08:04:35.466Z,66.00
2018-03-16T08:07:03.109Z,65.90
2018-03-16T08:09:31.548Z,65.70
2018-03-16T08:11:59.218Z,66.40
2018-03-16T08:14:26.944Z,65.30
2018-03-16T08:16:54.491Z,65.40
2018-03-16T08:19:22.042Z,65.10
2018-03-16T08:21:49.580Z,65.00
2018-03-16T08:24:17.896Z,64.60
2018-03-16T08:26:45.440Z,64.60
2018-03-16T08:29:13.090Z,64.60
2018-03-16T08:31:40.610Z,64.20
2018-03-16T08:34:08.159Z,64.10
2018-03-16T08:36:35.670Z,63.20
2018-03-16T08:39:03.249Z,63.30
2018-03-16T08:41:30.746Z,63.40
2018-03-16T08:43:59.162Z,63.50
2018-03-16T08:46:26.878Z,63.50
2018-03-16T08:48:55.238Z,63.60
2018-03-16T08:51:23.594Z,63.10
2018-03-16T08:53:51.131Z,63.00
2018-03-16T08:56:19.569Z,63.00
2018-03-16T08:58:47.111Z,63.00
2018-03-16T09:01:14.626Z,63.00
2018-03-16T09:03:42.214Z,63.30
2018-03-16T09:06:10.304Z,63.00
2018-03-16T09:08:37.876Z,62.60
2018-03-16T09:11:05.427Z,62.40
2018-03-16T09:13:33.137Z,63.00
2018-03-16T09:16:00.681Z,62.90
2018-03-16T09:18:28.523Z,62.40
2018-03-16T09:20:56.078Z,63.20
2018-03-16T09:23:24.105Z,63.60
2018-03-16T09:25:51.637Z,64.30
2018-03-16T09:28:20.235Z,64.30
2018-03-16T09:30:48.692Z,64.50
2018-03-16T09:33:16.247Z,64.70
2018-03-16T09:35:43.792Z,64.30
2018-03-16T09:38:11.346Z,63.80
2018-03-16T09:40:38.882Z,64.30
2018-03-16T09:43:07.508Z,65.30
2018-03-16T09:45:35.101Z,65.20
2018-03-16T09:48:02.687Z,65.80
2018-03-16T09:50:31.101Z,67.00
2018-03-16T09:52:58.768Z,67.00
2018-03-16T09:55:49.948Z,68.90
2018-03-16T09:58:17.558Z,67.90
2018-03-16T10:00:45.106Z,69.70
2018-03-16T10:03:12.656Z,68.90
2018-03-16T10:05:40.353Z,69.00
2018-03-16T10:08:07.887Z,69.10
2018-03-16T10:10:36.377Z,68.90
2018-03-16T10:13:03.918Z,66.70
2018-03-16T10:15:31.545Z,67.70
2018-03-16T10:17:59.963Z,67.00
2018-03-16T10:20:27.597Z,66.20
2018-03-16T10:22:55.171Z,65.50
2018-03-16T10:25:22.714Z,66.00
2018-03-16T10:27:50.316Z,65.70
2018-03-16T10:30:17.975Z,64.00
2018-03-16T10:32:45.528Z,64.40
2018-03-16T10:35:13.222Z,63.00
2018-03-16T10:37:40.757Z,63.30
2018-03-16T10:40:08.432Z,63.20
2018-03-16T10:42:35.964Z,62.30
2018-03-16T10:45:04.354Z,63.50
2018-03-16T10:47:31.940Z,63.10
2018-03-16T10:49:59.594Z,63.60
2018-03-16T10:52:27.250Z,63.10
2018-03-16T10:54:55.223Z,63.30
2018-03-16T10:57:22.858Z,63.70
2018-03-16T10:59:50.794Z,63.80
2018-03-16T11:02:19.657Z,64.10
2018-03-16T11:04:54.385Z,66.80
2018-03-16T11:07:21.949Z,66.90
2018-03-16T11:09:50.056Z,66.70
2018-03-16T11:12:18.918Z,67.90
2018-03-16T11:14:46.495Z,66.70
2018-03-16T11:17:14.910Z,69.90
2018-03-16T11:19:42.643Z,69.80
2018-03-16T11:22:10.193Z,68.40
2018-03-16T11:24:37.747Z,69.40
2018-03-16T11:27:05.279Z,71.10
2018-03-16T11:29:32.836Z,70.00
2018-03-16T11:32:00.363Z,71.20
2018-03-16T11:34:28.043Z,71.00
2018-03-16T11:36:55.554Z,71.90
2018-03-16T11:39:23.174Z,71.80
2018-03-16T11:41:50.953Z,71.00
2018-03-16T11:44:19.124Z,70.50
2018-03-16T11:46:46.854Z,72.00
2018-03-16T11:49:14.401Z,72.20
2018-03-16T11:51:41.989Z,71.50
2018-03-16T11:54:09.581Z,72.50
2018-03-16T11:56:37.653Z,74.70
2018-03-16T11:59:06.307Z,75.60
2018-03-16T12:01:34.348Z,75.40
2018-03-16T12:04:01.987Z,75.20
2018-03-16T12:06:29.550Z,75.50
2018-03-16T12:08:58.001Z,76.90
2018-03-16T12:11:25.711Z,76.10
2018-03-16T12:13:53.229Z,75.50
2018-03-16T12:16:21.778Z,76.40
2018-03-16T12:18:49.326Z,79.00
2018-03-16T12:21:17.270Z,78.50
2018-03-16T12:23:44.812Z,79.50
2018-03-16T12:26:13.614Z,77.70
2018-03-16T12:28:49.753Z,77.80
2018-03-16T12:31:09.043Z,80.00
2018-03-16T12:33:36.649Z,79.50
2018-03-16T12:36:04.694Z,77.90
2018-03-16T12:38:32.281Z,79.80
2018-03-16T12:40:59.859Z,79.50
2018-03-16T12:43:28.294Z,79.20
2018-03-16T12:45:56.057Z,78.00
2018-03-16T12:48:24.078Z,79.20
2018-03-16T12:50:51.789Z,78.40
2018-03-16T12:53:19.534Z,78.50
2018-03-16T12:55:48.376Z,78.80
2018-03-16T12:58:16.740Z,79.10
2018-03-16T13:00:44.419Z,79.00
2018-03-16T13:03:11.969Z,80.80
2018-03-16T13:05:39.491Z,79.40
2018-03-16T13:08:07.508Z,78.60
2018-03-16T13:10:35.605Z,77.80
2018-03-16T13:13:03.151Z,76.50
2018-03-16T13:15:31.360Z,79.60
2018-03-16T13:17:58.939Z,79.40
2018-03-16T13:20:26.944Z,78.30
2018-03-16T13:22:54.500Z,78.30
2018-03-16T13:25:22.116Z,78.00
2018-03-16T13:27:50.690Z,77.00
2018-03-16T13:30:18.396Z,77.00
2018-03-16T13:32:46.010Z,77.80
2018-03-16T13:35:13.731Z,76.80
2018-03-16T13:37:41.291Z,77.30
2018-03-16T13:40:09.177Z,75.70
2018-03-16T13:42:37.639Z,78.50
2018-03-16T13:45:05.251Z,76.40
2018-03-16T13:47:33.612Z,77.10
2018-03-16T13:50:01.211Z,76.90
2018-03-16T13:52:28.755Z,77.20
2018-03-16T13:54:56.551Z,77.20
2018-03-16T13:57:25.294Z,76.60
2018-03-16T13:59:53.080Z,76.50
2018-03-16T14:02:20.677Z,76.70
2018-03-16T14:04:48.481Z,78.40
2018-03-16T14:07:16.177Z,77.80
2018-03-16T14:09:43.785Z,78.20
2018-03-16T14:12:11.530Z,77.70
2018-03-16T14:14:39.059Z,78.60
2018-03-16T14:17:08.336Z,79.80
2018-03-16T14:19:36.225Z,79.70
2018-03-16T14:22:03.809Z,79.10
2018-03-16T14:24:31.385Z,77.20
2018-03-16T14:26:59.682Z,77.90
2018-03-16T14:29:27.237Z,81.80
2018-03-16T14:31:55.716Z,79.70
2018-03-16T14:34:23.619Z,80.20
2018-03-16T14:36:51.925Z,80.40
2018-03-16T14:39:19.496Z,80.40
2018-03-16T14:41:47.091Z,78.00
2018-03-16T14:44:14.673Z,78.80
2018-03-16T14:46:44.325Z,80.50
2018-03-16T14:49:11.913Z,80.00
2018-03-16T14:51:39.543Z,78.00
2018-03-16T14:54:08.844Z,79.40
2018-03-16T14:56:37.243Z,79.00
2018-03-16T14:59:05.110Z,78.00
2018-03-16T15:01:32.734Z,79.30
2018-03-16T15:04:00.296Z,80.60
2018-03-16T15:06:27.860Z,78.70
2018-03-16T15:08:55.482Z,79.60
2018-03-16T15:11:23.013Z,77.70
2018-03-16T15:13:50.872Z,76.80
2018-03-16T15:16:18.387Z,78.20
2018-03-16T15:18:46.777Z,77.20
2018-03-16T15:21:14.386Z,77.20
2018-03-16T15:23:41.946Z,76.40
2018-03-16T15:26:09.524Z,76.90
2018-03-16T15:28:41.592Z,75.70
2018-03-16T15:31:09.860Z,75.70
2018-03-16T15:33:37.966Z,75.80
2018-03-16T15:36:05.768Z,75.80
2018-03-16T15:38:33.355Z,73.30
2018-03-16T15:41:02.111Z,72.70
2018-03-16T15:43:29.833Z,72.80
2018-03-16T15:45:57.402Z,72.50
2018-03-16T15:48:24.992Z,72.40
2018-03-16T15:50:52.768Z,71.60
2018-03-16T15:53:20.941Z,72.00
2018-03-16T15:55:52.016Z,71.10
2018-03-16T15:58:21.594Z,70.00
2018-03-16T16:00:50.051Z,70.00
2018-03-16T16:03:17.697Z,68.40
2018-03-16T16:05:46.877Z,67.40
2018-03-16T16:08:14.536Z,67.30
2018-03-16T16:10:42.227Z,68.30
2018-03-16T16:13:10.128Z,68.50
2018-03-16T16:15:37.966Z,68.70
2018-03-16T16:18:06.174Z,67.80
2018-03-16T16:20:33.793Z,66.40
2018-03-16T16:23:02.119Z,67.50
2018-03-16T16:25:29.774Z,66.90
2018-03-16T16:27:57.369Z,70.60
2018-03-16T16:30:24.945Z,66.30
2018-03-16T16:32:53.618Z,68.40
2018-03-16T16:35:21.255Z,68.30
2018-03-16T16:37:49.797Z,68.60
2018-03-16T16:40:17.482Z,69.50
2018-03-16T16:42:45.418Z,70.10
2018-03-16T16:45:14.588Z,69.90
2018-03-16T16:47:43.401Z,69.60
2018-03-16T16:50:11.859Z,72.60
2018-03-16T16:52:39.467Z,72.40
2018-03-16T16:55:07.168Z,71.70
2018-03-16T16:57:34.847Z,71.20
2018-03-16T17:00:02.508Z,71.70
2018-03-16T17:02:30.540Z,72.90
2018-03-16T17:04:58.145Z,73.50
2018-03-16T17:07:25.938Z,72.20
2018-03-16T17:09:54.344Z,72.30
2018-03-16T17:12:22.204Z,72.70
2018-03-16T17:14:50.112Z,72.90
2018-03-16T17:17:17.706Z,71.40
2018-03-16T17:19:45.260Z,73.10
2018-03-16T17:22:13.547Z,71.60
2018-03-16T17:24:41.548Z,71.70
2018-03-16T17:27:09.163Z,72.90
2018-03-16T17:29:37.762Z,69.00
2018-03-16T17:32:05.554Z,69.80
2018-03-16T17:34:33.701Z,68.50
2018-03-16T17:37:01.931Z,68.50
2018-03-16T17:39:29.561Z,67.10
2018-03-16T17:41:57.347Z,67.70
2018-03-16T17:44:26.691Z,68.40
2018-03-16T17:46:54.545Z,68.40
2018-03-16T17:49:22.178Z,68.40
2018-03-16T17:51:49.913Z,67.20
2018-03-16T17:54:17.475Z,67.40
2018-03-16T17:56:45.131Z,68.40
2018-03-16T17:59:13.003Z,68.10
2018-03-16T18:01:40.680Z,67.70
2018-03-16T18:04:08.257Z,68.70
2018-03-16T18:06:35.859Z,68.60
2018-03-16T18:09:04.984Z,70.50
2018-03-16T18:11:32.650Z,70.50
2018-03-16T18:14:01.247Z,68.60
2018-03-16T18:16:29.148Z,68.60
2018-03-16T18:18:57.864Z,69.80
2018-03-16T18:21:26.362Z,69.60
2018-03-16T18:23:54.314Z,69.50
2018-03-16T18:26:22.019Z,69.30
2018-03-16T18:28:49.647Z,69.40
2018-03-16T18:31:17.980Z,71.00
2018-03-16T18:33:45.702Z,70.90
2018-03-16T18:36:13.427Z,67.30
2018-03-16T18:38:42.303Z,65.40
2018-03-16T18:41:09.969Z,65.30
2018-03-16T18:43:38.323Z,65.90
2018-03-16T18:46:05.978Z,65.30
2018-03-16T18:48:33.546Z,66.10
2018-03-16T18:51:01.214Z,65.80
2018-03-16T18:53:28.811Z,66.90
2018-03-16T18:55:57.163Z,69.10
2018-03-16T18:58:25.515Z,69.10
2018-03-16T19:00:53.066Z,69.50
2018-03-16T19:03:21.036Z,71.70
2018-03-16T19:05:49.299Z,72.00
2018-03-16T19:08:16.972Z,70.90
2018-03-16T19:10:44.721Z,70.70
2018-03-16T19:13:12.901Z,71.80
2018-03-16T19:15:41.197Z,72.10
2018-03-16T19:18:08.805Z,71.40
2018-03-16T19:20:36.381Z,71.90
2018-03-16T19:23:04.586Z,72.70
2018-03-16T19:25:32.408Z,71.90
2018-03-16T19:28:00.107Z,71.80
2018-03-16T19:30:28.463Z,71.70
2018-03-16T19:32:56.199Z,71.00
2018-03-16T19:35:23.856Z,70.00
2018-03-16T19:37:52.986Z,68.70
2018-03-16T19:40:20.568Z,68.60
2018-03-16T19:42:48.564Z,70.60
2018-03-16T19:45:17.729Z,69.60
2018-03-16T19:47:45.506Z,69.30
2018-03-16T19:50:13.086Z,67.10
2018-03-16T19:52:41.066Z,66.00
2018-03-16T19:55:08.739Z,64.10
2018-03-16T19:57:36.318Z,63.40
2018-03-16T20:00:04.147Z,63.40
2018-03-16T20:02:31.895Z,62.80
2018-03-16T20:04:59.694Z,61.70
2018-03-16T20:07:27.488Z,63.60
2018-03-16T20:09:55.948Z,61.60
2018-03-16T20:12:23.511Z,61.60
2018-03-16T20:14:51.616Z,60.10
2018-03-16T20:17:21.460Z,60.20
2018-03-16T20:19:49.025Z,59.10
2018-03-16T20:22:16.615Z,58.00
2018-03-16T20:24:44.454Z,57.20
2018-03-16T20:27:12.074Z,57.80
2018-03-16T20:29:39.623Z,58.20
2018-03-16T20:32:07.435Z,58.20
2018-03-16T20:34:35.733Z,57.90
2018-03-16T20:37:03.492Z,57.60
2018-03-16T20:39:31.685Z,57.70
2018-03-16T20:42:00.994Z,57.50
2018-03-16T20:44:29.424Z,56.80
2018-03-16T20:46:57.103Z,56.70
2018-03-16T20:49:24.691Z,56.70
2018-03-16T20:51:53.848Z,56.40
2018-03-16T20:54:23.248Z,56.70
2018-03-16T20:56:50.902Z,56.50
2018-03-16T20:59:18.718Z,56.40
2018-03-16T21:01:46.387Z,56.50
2018-03-16T21:04:14.928Z,56.90
2018-03-16T21:06:44.114Z,56.80
2018-03-16T21:09:11.705Z,56.40
2018-03-16T21:11:39.388Z,55.70
2018-03-16T21:14:07.436Z,56.40
2018-03-16T21:16:35.653Z,55.80
2018-03-16T21:19:03.209Z,55.60
2018-03-16T21:21:31.734Z,55.40
2018-03-16T21:24:00.376Z,54.70
2018-03-16T21:26:27.922Z,54.60
2018-03-16T21:28:56.405Z,55.60
2018-03-16T21:31:24.166Z,54.70
2018-03-16T21:33:51.732Z,55.50
2018-03-16T21:36:20.886Z,55.20
2018-03-16T21:38:49.093Z,54.60
2018-03-16T21:41:17.418Z,54.40
2018-03-16T21:43:45.053Z,54.70
2018-03-16T21:46:12.603Z,55.10
2018-03-16T21:48:41.108Z,54.80
2018-03-16T21:51:08.650Z,54.80
2018-03-16T21:53:36.925Z,54.10
2018-03-16T21:56:04.525Z,53.70
2018-03-16T21:58:32.085Z,53.80
2018-03-16T22:00:59.624Z,54.60
2018-03-16T22:03:27.157Z,54.10
2018-03-16T22:05:54.680Z,53.90
2018-03-16T22:08:22.251Z,54.50
2018-03-16T22:10:51.315Z,53.90
2018-03-16T22:13:19.426Z,53.90
2018-03-16T22:15:47.018Z,53.50
2018-03-16T22:18:14.554Z,53.70
2018-03-16T22:20:42.895Z,54.80
2018-03-16T22:23:11.158Z,54.70
2018-03-16T22:25:39.113Z,54.50
2018-03-16T22:28:06.627Z,53.50
2018-03-16T22:30:34.218Z,53.60
2018-03-16T22:33:01.823Z,53.50
2018-03-16T22:35:29.565Z,54.50
2018-03-16T22:37:57.077Z,52.90
2018-03-16T22:40:25.255Z,52.80
2018-03-16T22:42:52.774Z,53.30
2018-03-16T22:45:20.704Z,53.20
2018-03-16T22:47:49.250Z,54.60
2018-03-16T22:50:16.812Z,54.60
2018-03-16T22:52:44.965Z,53.60
2018-03-16T22:55:12.714Z,53.70
2018-03-16T22:57:40.236Z,53.90
2018-03-16T23:00:08.863Z,53.40
2018-03-16T23:02:36.806Z,53.40
2018-03-16T23:05:05.233Z,53.80
2018-03-16T23:07:32.773Z,53.80
2018-03-16T23:10:00.292Z,53.10
2018-03-16T23:12:27.930Z,52.60
2018-03-16T23:14:55.452Z,53.50
2018-03-16T23:17:23.536Z,52.70
2018-03-16T23:19:51.088Z,53.20
2018-03-16T23:22:18.614Z,53.20
2018-03-16T23:24:46.888Z,53.60
2018-03-16T23:27:15.543Z,52.80
2018-03-16T23:29:43.350Z,52.70
2018-03-16T23:32:11.885Z,52.10
2018-03-16T23:34:39.420Z,52.30
2018-03-16T23:37:07.135Z,52.60
2018-03-16T23:39:34.661Z,52.30
2018-03-16T23:42:02.363Z,53.20
2018-03-16T23:44:30.637Z,53.60
2018-03-16T23:46:58.912Z,52.20
2018-03-16T23:49:27.207Z,51.60
2018-03-16T23:51:54.822Z,51.50
2018-03-16T23:54:23.162Z,50.50
2018-03-16T23:56:51.106Z,50.20
2018-03-16T23:59:19.921Z,50.20
